Accueil
METAR-TAF:

METAR-TAF

Aéroports :

Touho, Nouvelle-Calédonie

Aérodrome de Touho

latitude: 20-47-25S, longitude: 165-15-34E, altitude: 3 m

METAR: absent

Heure: 00:51 (13:51 UTC)

Prévision

Le bulletin a été fait il y a 20 heures et 51 minutes, à 17:00 UTC
Prévision valable du 20 à 18 UTC au 21 à 18 UTC
Vent 8 kt de sud/sud-ouest
Visibilité 10 km ou plus
Nuages épars à une hauteur de 4000 ft

TAF: NWWU 201700Z 2018/2118 20008KT 9999 SCT040

Observations et prévisions météorologiques de plus de 4000 aéroports (messages METAR et TAF).

Les stations disponibles sont représentées par des disques jaunes et rouges sur la carte.

Passer la souris dessus pour voir le nom de la station.

Cliquer dessus pour voir les observations et prévisions météorologiques.

Pour changer de carte: cliquez sur les boutons verts avec une croix noire pour zoomer, sur le bouton vert avec un tiret pour effectuer un zoom arrière, ou sur les flèches vertes pour les cartes adjacentes.


METAR-TAF: